Time;durP1;ratioP1;P1;durP2;ratioP2;P2;SDS_P1;SDS_P2;PMS_P1;PMS_P2;Temp;Humidity;BMP_temperature;BMP_pressure;BME280_temperature;BME280_humidity;BME280_pressure;Samples;Min_cycle;Max_cycle;Signal;HPM_P1;HPM_P2
2022/07/15 00:02:15;;;;;;;4.35;2.58;;;;;;;;;;5077211;28;20541;-76
2022/07/15 00:04:41;;;;;;;7.22;2.80;;;;;;;;;;5110813;28;20079;-76
2022/07/15 00:07:07;;;;;;;5.97;2.50;;;;;;;;;;5093839;28;20043;-76
2022/07/15 00:12:18;;;;;;;7.05;2.28;;;;;;;;;;5079498;28;20130;-77
2022/07/15 00:14:44;;;;;;;6.18;2.40;;;;;;;;;;5093846;28;20050;-76
2022/07/15 00:17:10;;;;;;;7.85;2.30;;;;;;;;;;5076764;28;20038;-76
2022/07/15 00:19:37;;;;;;;6.18;2.30;;;;;;;;;;5094113;28;20050;-76
2022/07/15 00:22:03;;;;;;;6.70;2.40;;;;;;;;;;5093756;28;20051;-76
2022/07/15 00:24:29;;;;;;;7.60;2.58;;;;;;;;;;5093658;28;20047;-76
2022/07/15 00:26:56;;;;;;;9.23;2.90;;;;;;;;;;5093351;28;20127;-76
2022/07/15 00:29:23;;;;;;;6.03;2.90;;;;;;;;;;5093994;28;20032;-76
2022/07/15 00:31:49;;;;;;;6.53;2.80;;;;;;;;;;5093402;28;20134;-76
2022/07/15 00:34:16;;;;;;;6.22;2.72;;;;;;;;;;5093201;28;20040;-77
2022/07/15 00:36:43;;;;;;;9.25;2.58;;;;;;;;;;5093818;28;20066;-76
2022/07/15 00:39:09;;;;;;;6.97;2.65;;;;;;;;;;5093357;28;20043;-76
2022/07/15 00:41:38;;;;;;;5.30;2.30;;;;;;;;;;5076945;28;20050;-76
2022/07/15 00:44:04;;;;;;;8.13;3.20;;;;;;;;;;5092634;28;20071;-76
2022/07/15 00:46:31;;;;;;;10.27;3.10;;;;;;;;;;5093571;28;20040;-76
2022/07/15 00:48:58;;;;;;;8.68;2.60;;;;;;;;;;5093772;28;20405;-76
2022/07/15 00:51:24;;;;;;;6.28;2.50;;;;;;;;;;5093846;28;20043;-76
2022/07/15 00:53:52;;;;;;;6.25;2.10;;;;;;;;;;5093570;28;20453;-76
2022/07/15 00:56:18;;;;;;;8.38;2.60;;;;;;;;;;5093403;28;20555;-76
2022/07/15 00:58:44;;;;;;;7.80;2.60;;;;;;;;;;5114689;28;20059;-76
2022/07/15 01:01:11;;;;;;;8.65;2.97;;;;;;;;;;5080877;28;20570;-76
2022/07/15 01:03:37;;;;;;;9.60;3.15;;;;;;;;;;5097325;28;20075;-77
2022/07/15 01:06:04;;;;;;;9.00;2.85;;;;;;;;;;5096578;28;20046;-77
2022/07/15 01:08:30;;;;;;;8.15;2.90;;;;;;;;;;5097334;28;20047;-77
2022/07/15 01:10:56;;;;;;;6.60;2.45;;;;;;;;;;5070256;28;20043;-77
2022/07/15 01:13:23;;;;;;;8.63;2.95;;;;;;;;;;5097388;28;20388;-76
2022/07/15 01:15:49;;;;;;;8.10;2.90;;;;;;;;;;5096016;28;20040;-77
2022/07/15 01:18:16;;;;;;;5.88;2.65;;;;;;;;;;5090862;28;20039;-77
2022/07/15 01:20:42;;;;;;;11.75;3.33;;;;;;;;;;5096994;28;20040;-76
2022/07/15 01:23:08;;;;;;;8.70;2.85;;;;;;;;;;5079761;28;20043;-77
2022/07/15 01:25:34;;;;;;;6.25;2.55;;;;;;;;;;5096520;28;20048;-77
2022/07/15 01:28:01;;;;;;;6.25;2.40;;;;;;;;;;5079331;28;20031;-77
2022/07/15 01:30:27;;;;;;;8.95;3.00;;;;;;;;;;5096699;28;20051;-77
2022/07/15 01:32:53;;;;;;;8.30;3.00;;;;;;;;;;5063406;28;20109;-77
2022/07/15 01:35:19;;;;;;;8.65;2.70;;;;;;;;;;5096328;28;20083;-77
2022/07/15 01:37:45;;;;;;;6.57;2.65;;;;;;;;;;5096375;28;20036;-86
2022/07/15 01:40:11;;;;;;;10.07;3.00;;;;;;;;;;5096639;28;20449;-86
2022/07/15 01:42:38;;;;;;;10.65;2.55;;;;;;;;;;5092208;28;20039;-86
2022/07/15 01:45:05;;;;;;;10.02;2.70;;;;;;;;;;5096339;28;20114;-86
2022/07/15 01:47:32;;;;;;;9.75;2.58;;;;;;;;;;5114153;28;20036;-86
2022/07/15 01:49:59;;;;;;;6.47;2.60;;;;;;;;;;5096010;28;20046;-86
2022/07/15 01:52:25;;;;;;;10.68;2.55;;;;;;;;;;5096811;28;20057;-86
2022/07/15 01:54:51;;;;;;;10.55;2.80;;;;;;;;;;5096675;28;20126;-86
2022/07/15 01:57:18;;;;;;;8.13;2.25;;;;;;;;;;5095315;28;20071;-86
2022/07/15 01:59:44;;;;;;;7.80;2.55;;;;;;;;;;5096130;28;20047;-86
2022/07/15 02:02:10;;;;;;;7.43;2.20;;;;;;;;;;5093611;28;20031;-86
2022/07/15 02:04:36;;;;;;;10.20;2.70;;;;;;;;;;5090536;28;20475;-86
2022/07/15 02:07:03;;;;;;;6.28;2.40;;;;;;;;;;5094981;28;20068;-86
2022/07/15 02:09:29;;;;;;;7.10;2.53;;;;;;;;;;5095379;28;20186;-87
2022/07/15 02:11:55;;;;;;;7.05;2.28;;;;;;;;;;5096170;28;20040;-86
2022/07/15 02:14:21;;;;;;;8.82;2.30;;;;;;;;;;5095732;28;20040;-87
2022/07/15 02:16:47;;;;;;;8.80;2.60;;;;;;;;;;5096073;28;20058;-86
2022/07/15 02:19:14;;;;;;;5.72;2.28;;;;;;;;;;5095242;28;20126;-86
2022/07/15 02:21:40;;;;;;;6.07;2.33;;;;;;;;;;5096143;28;20142;-86
2022/07/15 02:24:06;;;;;;;7.03;2.65;;;;;;;;;;5095754;28;20067;-86
2022/07/15 02:26:32;;;;;;;6.15;2.55;;;;;;;;;;5096158;28;20407;-86
2022/07/15 02:28:59;;;;;;;8.98;2.55;;;;;;;;;;5078620;28;20039;-86
2022/07/15 02:31:25;;;;;;;8.13;2.50;;;;;;;;;;5095107;28;20130;-86
2022/07/15 02:33:51;;;;;;;10.52;2.63;;;;;;;;;;5096101;28;20068;-86
2022/07/15 02:36:17;;;;;;;7.35;2.50;;;;;;;;;;5078680;28;20118;-86
2022/07/15 02:38:43;;;;;;;7.50;2.50;;;;;;;;;;5094922;28;20066;-86
2022/07/15 02:41:11;;;;;;;6.88;2.50;;;;;;;;;;5091953;28;20050;-86
2022/07/15 02:43:37;;;;;;;5.80;2.20;;;;;;;;;;5096256;28;20043;-86
2022/07/15 02:46:04;;;;;;;7.05;2.42;;;;;;;;;;5113750;28;20036;-86
2022/07/15 02:48:31;;;;;;;8.45;2.25;;;;;;;;;;5095416;28;20032;-77
2022/07/15 02:50:57;;;;;;;8.05;2.55;;;;;;;;;;5094920;28;20419;-77
2022/07/15 02:53:28;;;;;;;5.13;2.45;;;;;;;;;;5095193;28;20098;-77
2022/07/15 02:55:55;;;;;;;6.85;2.45;;;;;;;;;;5095576;28;20400;-77
2022/07/15 02:58:22;;;;;;;7.80;2.45;;;;;;;;;;5077749;28;20036;-77
2022/07/15 03:00:49;;;;;;;6.47;2.40;;;;;;;;;;5112631;28;20040;-76
2022/07/15 03:03:15;;;;;;;7.35;2.20;;;;;;;;;;5094546;28;20141;-76
2022/07/15 03:05:41;;;;;;;5.68;2.00;;;;;;;;;;5095108;28;20079;-77
2022/07/15 03:08:07;;;;;;;4.43;2.05;;;;;;;;;;5094760;28;20510;-77
2022/07/15 03:10:33;;;;;;;6.00;2.13;;;;;;;;;;5094579;28;20127;-77
2022/07/15 03:12:59;;;;;;;4.53;1.90;;;;;;;;;;5077730;28;20070;-77
2022/07/15 03:15:26;;;;;;;6.28;1.90;;;;;;;;;;5094399;28;20040;-77
2022/07/15 03:17:52;;;;;;;10.85;2.15;;;;;;;;;;5078214;28;20051;-77
2022/07/15 03:20:18;;;;;;;7.68;2.00;;;;;;;;;;5094453;28;20079;-77
2022/07/15 03:22:44;;;;;;;8.75;2.40;;;;;;;;;;5093253;28;20047;-77
2022/07/15 03:25:10;;;;;;;7.50;2.78;;;;;;;;;;5060951;28;20131;-76
2022/07/15 03:27:36;;;;;;;5.90;2.00;;;;;;;;;;5094528;28;20039;-77
2022/07/15 03:30:03;;;;;;;6.40;1.80;;;;;;;;;;5094787;28;20044;-77
2022/07/15 03:32:29;;;;;;;8.13;2.42;;;;;;;;;;5093257;28;20090;-76
2022/07/15 03:34:57;;;;;;;6.93;2.00;;;;;;;;;;5095075;28;20047;-76
2022/07/15 03:37:23;;;;;;;5.85;1.88;;;;;;;;;;5093847;28;20039;-77
2022/07/15 03:39:49;;;;;;;6.05;2.15;;;;;;;;;;5094838;28;20083;-86
2022/07/15 03:42:15;;;;;;;5.70;1.95;;;;;;;;;;5060025;28;20122;-76
2022/07/15 03:44:41;;;;;;;5.93;2.10;;;;;;;;;;5112224;28;20043;-77
2022/07/15 03:47:07;;;;;;;9.85;2.33;;;;;;;;;;5113018;28;20123;-76
2022/07/15 03:49:33;;;;;;;7.65;2.30;;;;;;;;;;5077327;28;20046;-77
2022/07/15 03:51:59;;;;;;;6.38;1.75;;;;;;;;;;5094609;28;20373;-86
2022/07/15 03:54:25;;;;;;;7.65;1.75;;;;;;;;;;5093626;28;20114;-86
2022/07/15 03:56:52;;;;;;;4.18;1.60;;;;;;;;;;5094305;28;20036;-77
2022/07/15 03:59:20;;;;;;;5.13;2.20;;;;;;;;;;5093713;28;20150;-77
2022/07/15 04:01:48;;;;;;;6.38;2.30;;;;;;;;;;5075728;28;20040;-86
2022/07/15 04:04:14;;;;;;;9.38;2.25;;;;;;;;;;5093126;28;20066;-86
2022/07/15 04:06:40;;;;;;;7.55;1.92;;;;;;;;;;5076376;28;20073;-77
2022/07/15 04:09:07;;;;;;;5.20;1.70;;;;;;;;;;5094039;28;20096;-75
2022/07/15 04:11:33;;;;;;;6.38;1.98;;;;;;;;;;5093597;28;20044;-71
2022/07/15 04:13:59;;;;;;;5.57;1.83;;;;;;;;;;5111869;28;20043;-76
2022/07/15 04:16:26;;;;;;;4.45;1.77;;;;;;;;;;5093043;28;20035;-76
2022/07/15 04:18:52;;;;;;;4.20;1.70;;;;;;;;;;5093054;28;20043;-75
2022/07/15 04:21:18;;;;;;;7.43;2.00;;;;;;;;;;5093734;28;20061;-75
2022/07/15 04:23:44;;;;;;;6.15;1.80;;;;;;;;;;5093923;28;20504;-84
2022/07/15 04:26:10;;;;;;;5.28;1.63;;;;;;;;;;5072867;28;20035;-84
2022/07/15 04:28:37;;;;;;;3.80;1.70;;;;;;;;;;5093168;28;20039;-84
2022/07/15 04:31:03;;;;;;;6.13;1.50;;;;;;;;;;5091938;28;20126;-81
2022/07/15 04:33:29;;;;;;;5.13;1.50;;;;;;;;;;5095297;28;20131;-84
2022/07/15 04:35:55;;;;;;;7.43;2.10;;;;;;;;;;5096012;28;20051;-85
2022/07/15 04:38:21;;;;;;;8.45;1.85;;;;;;;;;;5089414;28;20047;-85
2022/07/15 04:40:47;;;;;;;4.40;1.50;;;;;;;;;;5091861;28;20036;-85
2022/07/15 04:43:13;;;;;;;7.03;2.30;;;;;;;;;;5095950;28;20046;-85
2022/07/15 04:45:40;;;;;;;3.97;1.42;;;;;;;;;;5089633;28;20052;-85
2022/07/15 04:50:51;;;;;;;4.60;1.40;;;;;;;;;;5083859;28;20040;-75
2022/07/15 04:53:19;;;;;;;4.57;1.15;;;;;;;;;;5092095;28;20040;-75
2022/07/15 04:55:45;;;;;;;4.93;1.50;;;;;;;;;;5086830;28;20050;-75
2022/07/15 04:58:14;;;;;;;5.00;1.40;;;;;;;;;;5096669;28;20040;-76
2022/07/15 05:00:40;;;;;;;5.75;1.23;;;;;;;;;;5097123;28;20393;-76
2022/07/15 05:03:06;;;;;;;6.35;1.50;;;;;;;;;;5096926;28;20071;-76
2022/07/15 05:05:33;;;;;;;4.97;1.70;;;;;;;;;;5096838;28;20531;-76
2022/07/15 05:07:59;;;;;;;4.65;1.40;;;;;;;;;;5079930;28;20036;-76
2022/07/15 05:10:25;;;;;;;3.65;1.17;;;;;;;;;;5096356;28;20035;-76
2022/07/15 05:12:51;;;;;;;6.07;1.40;;;;;;;;;;5097102;28;20070;-76
2022/07/15 05:15:17;;;;;;;4.85;1.13;;;;;;;;;;5096808;28;20445;-76
2022/07/15 05:17:43;;;;;;;3.00;1.20;;;;;;;;;;5096566;28;20043;-76
2022/07/15 05:20:10;;;;;;;5.25;1.10;;;;;;;;;;5096782;28;20121;-76
2022/07/15 05:22:36;;;;;;;4.25;1.42;;;;;;;;;;5079190;28;20054;-76
2022/07/15 05:25:02;;;;;;;4.45;1.05;;;;;;;;;;5092863;28;20082;-76
2022/07/15 05:27:28;;;;;;;3.38;0.90;;;;;;;;;;5091743;28;20035;-85
2022/07/15 05:29:54;;;;;;;4.63;1.20;;;;;;;;;;5086887;28;20040;-76
2022/07/15 05:32:20;;;;;;;4.75;0.90;;;;;;;;;;5095714;28;20066;-76
2022/07/15 05:34:46;;;;;;;6.22;1.10;;;;;;;;;;5096709;28;20048;-76
2022/07/15 05:37:13;;;;;;;3.78;1.10;;;;;;;;;;5096365;28;20134;-76
2022/07/15 05:39:53;;;;;;;5.13;0.90;;;;;;;;;;5062920;28;20499;-76
2022/07/15 05:42:20;;;;;;;4.57;1.52;;;;;;;;;;5081823;28;20052;-84
2022/07/15 05:44:46;;;;;;;2.70;0.80;;;;;;;;;;5094895;28;20044;-84
2022/07/15 05:47:12;;;;;;;3.83;0.90;;;;;;;;;;5096746;28;20064;-85
2022/07/15 05:49:39;;;;;;;3.00;0.88;;;;;;;;;;5090821;28;20047;-84
2022/07/15 05:52:05;;;;;;;5.38;0.90;;;;;;;;;;5095530;28;20045;-84
2022/07/15 05:54:31;;;;;;;2.17;0.70;;;;;;;;;;5095421;28;20438;-84
2022/07/15 05:56:58;;;;;;;6.03;0.88;;;;;;;;;;5078519;28;20071;-84
2022/07/15 05:59:24;;;;;;;2.50;0.70;;;;;;;;;;5103335;28;20572;-85
2022/07/15 06:01:50;;;;;;;4.15;1.10;;;;;;;;;;5094847;28;20078;-84
2022/07/15 06:04:16;;;;;;;3.03;0.77;;;;;;;;;;5095877;28;20130;-82
2022/07/15 06:06:42;;;;;;;4.13;0.80;;;;;;;;;;5095590;28;20044;-84
2022/07/15 06:09:09;;;;;;;3.00;0.93;;;;;;;;;;5096082;28;20055;-84
2022/07/15 06:11:35;;;;;;;2.58;0.60;;;;;;;;;;5095635;28;20130;-84
2022/07/15 06:14:03;;;;;;;1.70;0.50;;;;;;;;;;5095777;28;20043;-85
2022/07/15 06:16:29;;;;;;;4.05;0.60;;;;;;;;;;5113043;28;20054;-83
2022/07/15 06:18:55;;;;;;;1.95;0.60;;;;;;;;;;5095886;28;20039;-83
2022/07/15 06:21:22;;;;;;;3.35;0.70;;;;;;;;;;5096120;28;20049;-83
2022/07/15 06:23:48;;;;;;;1.65;0.43;;;;;;;;;;5094466;28;20040;-83
2022/07/15 06:26:14;;;;;;;1.98;0.45;;;;;;;;;;5095675;28;20035;-83
2022/07/15 06:28:40;;;;;;;1.20;0.40;;;;;;;;;;5078573;28;20100;-82
2022/07/15 06:31:06;;;;;;;3.65;0.45;;;;;;;;;;5095450;28;20127;-84
2022/07/15 06:33:32;;;;;;;1.63;0.32;;;;;;;;;;5095248;28;20043;-88
2022/07/15 06:35:58;;;;;;;1.63;0.50;;;;;;;;;;5094972;28;20031;-88
2022/07/15 06:38:24;;;;;;;1.08;0.30;;;;;;;;;;5078850;28;20082;-86
2022/07/15 06:40:51;;;;;;;2.20;0.30;;;;;;;;;;5080694;28;20540;-85
2022/07/15 06:43:17;;;;;;;2.55;0.50;;;;;;;;;;5093915;28;20066;-86
2022/07/15 06:45:43;;;;;;;5.40;0.40;;;;;;;;;;5094922;28;20556;-84
2022/07/15 06:48:09;;;;;;;1.75;0.40;;;;;;;;;;5095322;28;20514;-85
2022/07/15 06:50:35;;;;;;;1.80;0.52;;;;;;;;;;5094815;28;20039;-85
2022/07/15 06:53:02;;;;;;;2.58;0.40;;;;;;;;;;5095499;28;20116;-86
2022/07/15 06:55:28;;;;;;;2.45;0.30;;;;;;;;;;5095257;28;20407;-86
2022/07/15 06:57:54;;;;;;;2.03;0.40;;;;;;;;;;5094573;28;20075;-86
2022/07/15 07:00:20;;;;;;;3.05;0.40;;;;;;;;;;5094848;28;20040;-86
2022/07/15 07:02:46;;;;;;;2.03;0.40;;;;;;;;;;5094977;28;20050;-84
2022/07/15 07:05:13;;;;;;;3.25;0.40;;;;;;;;;;5094787;28;20124;-85
2022/07/15 07:07:39;;;;;;;1.88;0.45;;;;;;;;;;5094674;28;20074;-85
2022/07/15 07:10:05;;;;;;;1.42;0.40;;;;;;;;;;5089841;28;20181;-83
2022/07/15 07:12:32;;;;;;;1.90;0.32;;;;;;;;;;5094991;28;20032;-87
2022/07/15 07:15:00;;;;;;;1.63;0.43;;;;;;;;;;5077499;28;20070;-84
2022/07/15 07:17:27;;;;;;;3.88;0.70;;;;;;;;;;5113106;28;20031;-83
2022/07/15 07:19:53;;;;;;;2.78;0.47;;;;;;;;;;5094504;28;20035;-85
2022/07/15 07:22:19;;;;;;;5.65;0.32;;;;;;;;;;5094612;28;20123;-86
2022/07/15 07:24:45;;;;;;;2.90;0.32;;;;;;;;;;5083626;28;20105;-84
2022/07/15 07:27:12;;;;;;;2.72;0.65;;;;;;;;;;5090723;28;20487;-85
2022/07/15 07:29:38;;;;;;;4.00;0.63;;;;;;;;;;5077871;28;20055;-85
2022/07/15 07:32:04;;;;;;;1.05;0.30;;;;;;;;;;5089524;28;20044;-85
2022/07/15 07:34:30;;;;;;;1.23;0.32;;;;;;;;;;5094432;28;20055;-86
2022/07/15 07:36:56;;;;;;;0.65;0.20;;;;;;;;;;5077670;28;20097;-81
2022/07/15 07:39:22;;;;;;;3.60;0.65;;;;;;;;;;5094003;28;20396;-85
2022/07/15 07:41:53;;;;;;;2.20;0.50;;;;;;;;;;5060149;28;20047;-83
2022/07/15 07:44:19;;;;;;;1.75;0.30;;;;;;;;;;5075800;28;20187;-85
2022/07/15 07:46:46;;;;;;;1.27;0.30;;;;;;;;;;5093470;28;20484;-84
2022/07/15 07:49:12;;;;;;;0.80;0.20;;;;;;;;;;5056774;28;20032;-84
2022/07/15 07:51:40;;;;;;;1.38;0.40;;;;;;;;;;5109139;28;20028;-83
2022/07/15 07:54:07;;;;;;;3.63;0.55;;;;;;;;;;5093912;28;20454;-84
2022/07/15 07:56:33;;;;;;;1.98;0.40;;;;;;;;;;5093810;28;20044;-82
2022/07/15 07:58:59;;;;;;;2.63;0.40;;;;;;;;;;5093358;28;20469;-88
2022/07/15 08:01:25;;;;;;;2.22;0.40;;;;;;;;;;5060538;28;20047;-83
2022/07/15 08:03:51;;;;;;;2.53;0.40;;;;;;;;;;5090078;28;20051;-82
2022/07/15 08:06:18;;;;;;;2.10;0.30;;;;;;;;;;5064263;28;20031;-83
2022/07/15 08:08:44;;;;;;;2.13;0.38;;;;;;;;;;5088635;28;20399;-81
2022/07/15 08:11:11;;;;;;;0.88;0.20;;;;;;;;;;5087616;28;20039;-81
2022/07/15 08:13:38;;;;;;;1.63;0.60;;;;;;;;;;5088549;28;20043;-82
2022/07/15 08:16:04;;;;;;;1.38;0.20;;;;;;;;;;5086496;28;20048;-84
2022/07/15 08:18:30;;;;;;;1.23;0.35;;;;;;;;;;5085300;28;20043;-83
2022/07/15 08:20:57;;;;;;;1.23;0.30;;;;;;;;;;5069679;28;20042;-83
2022/07/15 08:23:23;;;;;;;2.42;0.40;;;;;;;;;;5088370;28;20039;-83
2022/07/15 08:25:50;;;;;;;0.82;0.30;;;;;;;;;;5087016;28;20044;-81
2022/07/15 08:28:17;;;;;;;2.90;0.40;;;;;;;;;;5088738;28;20111;-80
2022/07/15 08:30:44;;;;;;;3.20;0.40;;;;;;;;;;5086374;28;20043;-78
2022/07/15 08:33:10;;;;;;;2.35;0.40;;;;;;;;;;5078909;28;20528;-80
2022/07/15 08:35:36;;;;;;;1.30;0.40;;;;;;;;;;5087747;28;20408;-77
2022/07/15 08:38:07;;;;;;;1.27;0.40;;;;;;;;;;5088996;28;20456;-78
2022/07/15 08:40:33;;;;;;;2.05;0.38;;;;;;;;;;5087770;28;20381;-77
2022/07/15 08:42:59;;;;;;;1.35;0.40;;;;;;;;;;5087347;28;20122;-78
2022/07/15 08:45:26;;;;;;;1.30;0.25;;;;;;;;;;5086866;28;20132;-78
2022/07/15 08:47:52;;;;;;;1.65;0.50;;;;;;;;;;5088335;28;20087;-78
2022/07/15 08:50:19;;;;;;;2.75;0.70;;;;;;;;;;5070684;28;20531;-78
2022/07/15 08:52:46;;;;;;;2.42;0.40;;;;;;;;;;5085566;28;20122;-79
2022/07/15 08:55:13;;;;;;;2.70;0.32;;;;;;;;;;5087731;28;20510;-78
2022/07/15 08:57:39;;;;;;;2.10;0.32;;;;;;;;;;5059598;28;20100;-78
2022/07/15 09:00:10;;;;;;;3.08;0.40;;;;;;;;;;5086638;28;20495;-75
2022/07/15 09:02:37;;;;;;;1.75;0.40;;;;;;;;;;5085959;28;20507;-76
2022/07/15 09:05:36;;;;;;;1.70;0.38;;;;;;;;;;5078218;28;20044;-75
2022/07/15 09:08:10;;;;;;;1.85;0.35;;;;;;;;;;5051579;28;20416;-76
2022/07/15 09:10:45;;;;;;;2.10;0.40;;;;;;;;;;5085635;28;20119;-73
2022/07/15 09:13:12;;;;;;;1.00;0.30;;;;;;;;;;5087159;28;20035;-81
2022/07/15 09:15:41;;;;;;;2.50;0.50;;;;;;;;;;5087274;28;20556;-80
2022/07/15 09:18:10;;;;;;;1.83;0.40;;;;;;;;;;5086091;28;20434;-79
2022/07/15 09:20:36;;;;;;;1.95;0.50;;;;;;;;;;5090462;28;20118;-79
2022/07/15 09:23:03;;;;;;;1.35;0.40;;;;;;;;;;5090571;28;20046;-79
2022/07/15 09:25:33;;;;;;;3.28;0.57;;;;;;;;;;5090367;28;20043;-78
2022/07/15 09:28:01;;;;;;;1.23;0.40;;;;;;;;;;5073284;28;20042;-79
2022/07/15 09:36:05;;;;;;;2.05;0.40;;;;;;;;;;5090036;28;20075;-79
2022/07/15 09:39:00;;;;;;;1.17;0.38;;;;;;;;;;5090964;28;20070;-79
2022/07/15 09:41:29;;;;;;;1.27;0.30;;;;;;;;;;5079042;28;20067;-79
2022/07/15 09:44:09;;;;;;;1.33;0.40;;;;;;;;;;5089815;28;20036;-78
2022/07/15 09:46:47;;;;;;;0.73;0.30;;;;;;;;;;5090771;28;20032;-79
2022/07/15 09:49:32;;;;;;;2.55;0.40;;;;;;;;;;5095387;28;20091;-78
2022/07/15 09:52:08;;;;;;;2.22;0.55;;;;;;;;;;5091122;28;20040;-77
2022/07/15 09:54:36;;;;;;;1.42;0.40;;;;;;;;;;5090070;28;20050;-78
2022/07/15 09:57:03;;;;;;;2.08;0.50;;;;;;;;;;5095814;28;20069;-78
2022/07/15 09:59:30;;;;;;;2.08;0.57;;;;;;;;;;5095378;28;20051;-77
2022/07/15 10:01:56;;;;;;;2.17;0.40;;;;;;;;;;5078464;28;20035;-78
2022/07/15 10:04:24;;;;;;;1.63;0.47;;;;;;;;;;5096108;28;20035;-78
2022/07/15 10:06:51;;;;;;;2.85;0.55;;;;;;;;;;5096045;28;20044;-78
2022/07/15 10:09:24;;;;;;;2.55;0.57;;;;;;;;;;5094155;28;20035;-78
2022/07/15 10:11:53;;;;;;;1.08;0.40;;;;;;;;;;5081756;28;20081;-77
2022/07/15 10:14:28;;;;;;;1.08;0.40;;;;;;;;;;5094340;28;20104;-78
2022/07/15 10:17:09;;;;;;;4.38;0.52;;;;;;;;;;5090199;28;20118;-78
2022/07/15 10:19:45;;;;;;;3.65;0.50;;;;;;;;;;5089528;28;20103;-78
2022/07/15 10:22:17;;;;;;;2.53;0.60;;;;;;;;;;5084426;28;20425;-77
2022/07/15 10:24:58;;;;;;;4.22;0.60;;;;;;;;;;5094176;28;20449;-77
2022/07/15 10:27:39;;;;;;;3.00;0.60;;;;;;;;;;5095078;28;20035;-79
2022/07/15 10:30:07;;;;;;;3.83;0.50;;;;;;;;;;5077071;28;20035;-78
2022/07/15 10:32:59;;;;;;;1.85;0.57;;;;;;;;;;5094936;28;20056;-78
2022/07/15 10:35:41;;;;;;;3.15;0.60;;;;;;;;;;5079441;28;20078;-77
2022/07/15 10:38:20;;;;;;;1.90;0.50;;;;;;;;;;5094765;28;20058;-77
2022/07/15 10:40:56;;;;;;;3.15;0.50;;;;;;;;;;5092338;28;20642;-77
2022/07/15 10:43:38;;;;;;;1.60;0.50;;;;;;;;;;5091665;28;20044;-78
2022/07/15 10:46:05;;;;;;;2.30;0.60;;;;;;;;;;5092425;28;20057;-77
2022/07/15 10:48:31;;;;;;;2.85;0.60;;;;;;;;;;5094931;28;20452;-79
2022/07/15 10:50:57;;;;;;;3.20;0.50;;;;;;;;;;5076978;28;20063;-80
2022/07/15 10:53:27;;;;;;;4.18;0.63;;;;;;;;;;5077541;28;20039;-81
2022/07/15 10:55:53;;;;;;;1.92;0.50;;;;;;;;;;5094868;28;20071;-82
2022/07/15 10:58:19;;;;;;;2.20;0.65;;;;;;;;;;5093994;28;20047;-80
2022/07/15 11:00:46;;;;;;;2.10;0.47;;;;;;;;;;5092986;28;20059;-80
2022/07/15 11:03:17;;;;;;;4.43;0.70;;;;;;;;;;5088784;28;20377;-79
2022/07/15 11:05:49;;;;;;;4.13;0.65;;;;;;;;;;5077758;28;20127;-77
2022/07/15 11:08:34;;;;;;;2.33;0.50;;;;;;;;;;5094374;28;20028;-78
2022/07/15 11:11:23;;;;;;;2.42;0.50;;;;;;;;;;5082963;28;20043;-80
2022/07/15 11:13:50;;;;;;;1.27;0.35;;;;;;;;;;5069854;28;20043;-82
2022/07/15 11:16:19;;;;;;;1.83;0.47;;;;;;;;;;5094182;28;20044;-81
2022/07/15 11:18:50;;;;;;;4.38;0.52;;;;;;;;;;5077317;28;20063;-81
2022/07/15 11:21:17;;;;;;;1.63;0.40;;;;;;;;;;5083107;28;20384;-82
2022/07/15 11:23:50;;;;;;;2.95;0.80;;;;;;;;;;5074393;28;20503;-83
2022/07/15 11:26:16;;;;;;;3.13;0.57;;;;;;;;;;5093790;28;20047;-83
2022/07/15 11:28:49;;;;;;;0.88;0.30;;;;;;;;;;5076343;28;20391;-83
2022/07/15 11:31:15;;;;;;;2.17;0.30;;;;;;;;;;5093784;28;20480;-81
2022/07/15 11:33:41;;;;;;;1.20;0.40;;;;;;;;;;5081951;28;20040;-83
2022/07/15 11:36:16;;;;;;;2.38;0.50;;;;;;;;;;5075324;28;20062;-84
2022/07/15 11:38:42;;;;;;;1.65;0.40;;;;;;;;;;5094876;28;20408;-82
2022/07/15 11:46:50;;;;;;;3.80;0.50;;;;;;;;;;5093966;28;20130;-80
2022/07/15 11:49:26;;;;;;;1.63;0.40;;;;;;;;;;5093089;28;20035;-82
2022/07/15 11:51:52;;;;;;;1.48;0.40;;;;;;;;;;5092746;28;20127;-80
2022/07/15 11:54:18;;;;;;;1.70;0.30;;;;;;;;;;5092367;28;20036;-78
2022/07/15 11:56:52;;;;;;;2.13;0.40;;;;;;;;;;5093369;28;20088;-78
2022/07/15 11:59:19;;;;;;;1.93;0.40;;;;;;;;;;5093608;28;20062;-79
2022/07/15 12:01:45;;;;;;;3.15;0.50;;;;;;;;;;5091623;28;20430;-71
2022/07/15 12:04:11;;;;;;;1.95;0.60;;;;;;;;;;5092486;28;20040;-70
2022/07/15 12:06:37;;;;;;;1.42;0.40;;;;;;;;;;5100075;28;20039;-71
2022/07/15 12:09:07;;;;;;;2.10;0.40;;;;;;;;;;5090441;28;20032;-71
2022/07/15 12:11:38;;;;;;;4.30;0.50;;;;;;;;;;5086887;28;20514;-70
2022/07/15 12:14:04;;;;;;;1.88;0.50;;;;;;;;;;5107912;28;20032;-70
2022/07/15 12:16:30;;;;;;;1.70;0.30;;;;;;;;;;5106646;28;20043;-69
2022/07/15 12:19:01;;;;;;;2.60;0.70;;;;;;;;;;5111795;28;20042;-70
2022/07/15 12:21:27;;;;;;;3.38;0.50;;;;;;;;;;5111342;28;20043;-70
2022/07/15 12:24:01;;;;;;;1.23;0.40;;;;;;;;;;5093375;28;20038;-70
2022/07/15 12:26:27;;;;;;;0.98;0.40;;;;;;;;;;5108127;28;20100;-71
2022/07/15 12:28:57;;;;;;;1.63;0.40;;;;;;;;;;5103838;28;20067;-70
2022/07/15 12:31:30;;;;;;;2.08;0.40;;;;;;;;;;5111225;28;20056;-71
2022/07/15 12:33:57;;;;;;;1.83;0.40;;;;;;;;;;5111533;28;20051;-70
2022/07/15 12:36:24;;;;;;;0.85;0.30;;;;;;;;;;5111187;28;20035;-71
2022/07/15 12:39:04;;;;;;;4.75;0.60;;;;;;;;;;5111363;28;20106;-70
2022/07/15 12:41:30;;;;;;;1.83;0.50;;;;;;;;;;5104263;28;20416;-70
2022/07/15 12:43:58;;;;;;;1.60;0.60;;;;;;;;;;5111353;28;20110;-69
2022/07/15 12:46:42;;;;;;;1.85;0.57;;;;;;;;;;5110189;28;20035;-69
2022/07/15 12:49:08;;;;;;;4.38;0.70;;;;;;;;;;5110977;28;20039;-92
2022/07/15 12:51:35;;;;;;;2.10;0.80;;;;;;;;;;5093234;28;20097;-79
2022/07/15 12:54:05;;;;;;;2.92;0.50;;;;;;;;;;5078434;28;20049;-81
2022/07/15 12:56:32;;;;;;;2.95;0.60;;;;;;;;;;5097245;28;20567;-80
2022/07/15 12:58:58;;;;;;;3.08;0.60;;;;;;;;;;5097392;28;20040;-80
2022/07/15 13:01:24;;;;;;;1.50;0.60;;;;;;;;;;5097022;28;20503;-79
2022/07/15 13:03:52;;;;;;;1.42;0.60;;;;;;;;;;5097083;28;20036;-79
2022/07/15 13:06:19;;;;;;;4.32;0.60;;;;;;;;;;5096589;28;20036;-79
2022/07/15 13:08:45;;;;;;;4.57;0.60;;;;;;;;;;5097172;28;20078;-80
2022/07/15 13:11:11;;;;;;;3.05;0.80;;;;;;;;;;5097399;28;20055;-80
2022/07/15 13:13:39;;;;;;;4.07;0.80;;;;;;;;;;5115338;28;20067;-80
2022/07/15 13:16:06;;;;;;;3.00;0.70;;;;;;;;;;5115725;28;20492;-80
2022/07/15 13:18:33;;;;;;;1.63;0.60;;;;;;;;;;5097039;28;20047;-79
2022/07/15 13:20:59;;;;;;;2.45;0.80;;;;;;;;;;5097553;28;20487;-80
2022/07/15 13:23:26;;;;;;;1.75;0.70;;;;;;;;;;5079829;28;20066;-80
2022/07/15 13:25:54;;;;;;;1.27;0.60;;;;;;;;;;5096926;28;20040;-80
2022/07/15 13:28:20;;;;;;;1.50;0.60;;;;;;;;;;5103450;28;20047;-79
2022/07/15 13:30:47;;;;;;;2.92;0.70;;;;;;;;;;5094341;28;20032;-79
2022/07/15 13:33:13;;;;;;;2.80;0.70;;;;;;;;;;5096952;28;20058;-79
2022/07/15 13:35:39;;;;;;;2.45;0.90;;;;;;;;;;5096482;28;20051;-79
2022/07/15 13:38:05;;;;;;;1.83;0.82;;;;;;;;;;5097185;28;20450;-79
2022/07/15 13:40:32;;;;;;;2.97;0.90;;;;;;;;;;5096509;28;20039;-77
2022/07/15 13:42:58;;;;;;;2.03;0.85;;;;;;;;;;5079775;28;20043;-80
2022/07/15 13:45:24;;;;;;;3.85;0.77;;;;;;;;;;5096260;28;20051;-79
2022/07/15 13:47:51;;;;;;;2.60;0.70;;;;;;;;;;5080162;28;20074;-79
2022/07/15 13:53:02;;;;;;;6.05;1.02;;;;;;;;;;5096661;28;20048;-79
2022/07/15 13:55:29;;;;;;;3.13;0.90;;;;;;;;;;5079649;28;20040;-79
2022/07/15 13:57:55;;;;;;;2.30;0.80;;;;;;;;;;5096844;28;20391;-78
2022/07/15 14:00:23;;;;;;;2.70;0.90;;;;;;;;;;5078982;28;20067;-77
2022/07/15 14:02:49;;;;;;;3.13;0.90;;;;;;;;;;5096607;28;20480;-80
2022/07/15 14:05:16;;;;;;;1.92;0.90;;;;;;;;;;5078735;28;20192;-80
2022/07/15 14:07:42;;;;;;;4.80;1.00;;;;;;;;;;5105586;27;20077;-80
2022/07/15 14:10:08;;;;;;;5.10;1.00;;;;;;;;;;5100955;28;20046;-79
2022/07/15 14:12:34;;;;;;;2.88;1.10;;;;;;;;;;5095805;28;20108;-79
2022/07/15 14:15:01;;;;;;;3.40;1.05;;;;;;;;;;5096285;28;20031;-79
2022/07/15 14:17:29;;;;;;;2.55;0.80;;;;;;;;;;5095464;28;20096;-79
2022/07/15 14:19:55;;;;;;;4.10;1.00;;;;;;;;;;5096220;28;20509;-79
2022/07/15 14:22:21;;;;;;;3.45;1.10;;;;;;;;;;5079445;28;20039;-79
2022/07/15 14:24:47;;;;;;;3.95;1.00;;;;;;;;;;5095887;28;20409;-78
2022/07/15 14:27:14;;;;;;;2.28;0.90;;;;;;;;;;5079044;28;20044;-79
2022/07/15 14:29:40;;;;;;;6.38;1.20;;;;;;;;;;5095626;28;20067;-79
2022/07/15 14:32:07;;;;;;;3.78;1.00;;;;;;;;;;5078714;28;20051;-80
2022/07/15 14:34:33;;;;;;;3.28;1.30;;;;;;;;;;5096073;28;20047;-79
2022/07/15 14:36:59;;;;;;;3.13;1.08;;;;;;;;;;5095898;28;20083;-80
2022/07/15 14:39:25;;;;;;;4.90;1.75;;;;;;;;;;5095144;28;20047;-80
2022/07/15 14:41:51;;;;;;;8.45;1.30;;;;;;;;;;5079036;28;20073;-79
2022/07/15 14:44:17;;;;;;;3.15;1.20;;;;;;;;;;5061972;28;20043;-79
2022/07/15 14:46:43;;;;;;;4.95;1.30;;;;;;;;;;5078696;28;20031;-81
2022/07/15 14:49:09;;;;;;;3.17;1.17;;;;;;;;;;5095401;28;20040;-79
2022/07/15 14:51:35;;;;;;;3.10;1.10;;;;;;;;;;5081180;27;20066;-80
2022/07/15 14:54:01;;;;;;;3.13;1.00;;;;;;;;;;5107046;28;20172;-79
2022/07/15 14:56:27;;;;;;;2.45;1.10;;;;;;;;;;5078257;28;20043;-76
2022/07/15 14:58:53;;;;;;;2.25;0.90;;;;;;;;;;5078733;28;20042;-80
2022/07/15 15:01:19;;;;;;;3.88;1.20;;;;;;;;;;5095174;28;20092;-79
2022/07/15 15:03:46;;;;;;;5.07;1.00;;;;;;;;;;5094850;28;20058;-82
2022/07/15 15:06:12;;;;;;;3.30;1.08;;;;;;;;;;5095378;28;20117;-80